Time;durP1;ratioP1;P1;durP2;ratioP2;P2;SDS_P1;SDS_P2;PMS_P1;PMS_P2;Temp;Humidity;BMP_temperature;BMP_pressure;BME280_temperature;BME280_humidity;BME280_pressure;Samples;Min_cycle;Max_cycle;Signal;HPM_P1;HPM_P2
2023/04/22 00:01:32;;;;;;;11.85;8.20;;;10.60;76.00;;;;;;5080609;28;20013;-46
2023/04/22 00:03:58;;;;;;;15.35;7.53;;;10.60;76.10;;;;;;5057614;28;20492;-46
2023/04/22 00:06:24;;;;;;;10.35;7.15;;;10.60;75.90;;;;;;5072563;28;20033;-47
2023/04/22 00:08:52;;;;;;;9.68;7.40;;;10.50;76.00;;;;;;5080352;28;20759;-47
2023/04/22 00:11:18;;;;;;;11.20;7.72;;;10.50;75.90;;;;;;5092850;28;20024;-47
2023/04/22 00:13:45;;;;;;;11.77;7.07;;;10.50;75.80;;;;;;5081303;28;20027;-49
2023/04/22 00:16:10;;;;;;;11.40;6.85;;;10.50;75.40;;;;;;5090836;28;20020;-48
2023/04/22 00:18:36;;;;;;;12.45;7.07;;;10.50;75.50;;;;;;5077756;28;20063;-49
2023/04/22 00:21:02;;;;;;;13.27;8.00;;;10.60;75.10;;;;;;5072858;28;20028;-49
2023/04/22 00:23:30;;;;;;;11.32;8.60;;;10.60;75.20;;;;;;5054676;28;20045;-50
2023/04/22 00:25:57;;;;;;;10.15;7.15;;;10.50;75.30;;;;;;5087476;28;20043;-46
2023/04/22 00:28:25;;;;;;;11.07;7.32;;;10.50;75.40;;;;;;5072642;28;20138;-48
2023/04/22 00:30:52;;;;;;;10.95;6.93;;;10.50;75.30;;;;;;5078378;28;20032;-47
2023/04/22 00:33:22;;;;;;;12.07;8.07;;;10.40;75.50;;;;;;5080502;28;20104;-49
2023/04/22 00:35:49;;;;;;;10.48;7.13;;;10.40;75.50;;;;;;5054698;28;20094;-48
2023/04/22 00:38:17;;;;;;;10.00;6.80;;;10.40;75.60;;;;;;5072783;28;20028;-48
2023/04/22 00:40:46;;;;;;;8.40;6.80;;;10.40;75.60;;;;;;5078386;28;20047;-48
2023/04/22 00:43:15;;;;;;;11.73;7.50;;;10.40;75.50;;;;;;5091312;28;20391;-47
2023/04/22 00:45:42;;;;;;;10.05;6.53;;;10.40;75.40;;;;;;5038892;28;20377;-46
2023/04/22 00:48:11;;;;;;;11.35;7.13;;;10.40;75.30;;;;;;5061913;28;20024;-46
2023/04/22 00:50:52;;;;;;;8.90;7.22;;;10.40;75.60;;;;;;5054636;28;20044;-48
2023/04/22 00:53:19;;;;;;;9.48;6.38;;;10.30;75.50;;;;;;5054498;28;20043;-46
2023/04/22 00:55:47;;;;;;;12.07;7.65;;;10.40;75.60;;;;;;5058836;28;20044;-48
2023/04/22 00:58:16;;;;;;;9.35;6.47;;;10.30;75.40;;;;;;5072707;28;20036;-47
2023/04/22 01:00:44;;;;;;;11.52;7.00;;;10.30;75.50;;;;;;5059396;28;20179;-46
2023/04/22 01:03:11;;;;;;;7.53;6.55;;;10.30;75.60;;;;;;5089856;28;20043;-50
2023/04/22 01:05:43;;;;;;;10.00;7.57;;;10.30;75.50;;;;;;5088052;28;20101;-49
2023/04/22 01:08:08;;;;;;;14.52;7.03;;;10.30;75.70;;;;;;5078958;28;20024;-48
2023/04/22 01:10:35;;;;;;;10.02;7.07;;;10.20;75.80;;;;;;5086148;28;20077;-46
2023/04/22 01:13:05;;;;;;;9.63;6.60;;;10.30;75.90;;;;;;5066139;28;20039;-46
2023/04/22 01:15:33;;;;;;;9.90;7.30;;;10.20;75.90;;;;;;5087994;28;20042;-46
2023/04/22 01:18:00;;;;;;;9.30;7.25;;;10.20;76.10;;;;;;5083141;28;20101;-49
2023/04/22 01:20:31;;;;;;;9.75;6.82;;;10.20;76.20;;;;;;5091113;28;20409;-49
2023/04/22 01:23:01;;;;;;;12.02;6.50;;;10.00;76.50;;;;;;5092336;28;20034;-46
2023/04/22 01:25:28;;;;;;;9.70;6.18;;;10.00;76.80;;;;;;5087841;28;20054;-48
2023/04/22 01:27:55;;;;;;;9.40;6.63;;;9.90;77.10;;;;;;5073237;28;20437;-48
2023/04/22 01:30:22;;;;;;;11.50;7.47;;;9.90;77.40;;;;;;5073927;28;20039;-46
2023/04/22 01:32:51;;;;;;;8.52;6.70;;;9.90;77.40;;;;;;5079106;28;20809;-47
2023/04/22 01:35:19;;;;;;;10.07;7.00;;;9.90;77.40;;;;;;5093064;28;20314;-45
2023/04/22 01:37:48;;;;;;;11.77;6.22;;;9.90;76.70;;;;;;5095267;28;20122;-49
2023/04/22 01:40:18;;;;;;;9.18;7.22;;;9.90;77.10;;;;;;5074220;28;20028;-48
2023/04/22 01:42:44;;;;;;;10.98;7.07;;;9.80;77.10;;;;;;5092831;28;20074;-47
2023/04/22 01:45:12;;;;;;;9.02;6.80;;;9.80;76.60;;;;;;5078753;28;20450;-46
2023/04/22 01:47:40;;;;;;;10.27;7.07;;;9.70;76.60;;;;;;5082321;28;20024;-46
2023/04/22 01:50:06;;;;;;;8.55;6.45;;;9.70;76.40;;;;;;5080576;28;20048;-46
2023/04/22 01:52:32;;;;;;;8.75;6.43;;;9.70;76.40;;;;;;5057987;28;20040;-49
2023/04/22 01:54:58;;;;;;;9.18;6.82;;;9.60;76.80;;;;;;5082107;28;20032;-46
2023/04/22 01:57:25;;;;;;;8.55;6.28;;;9.50;77.00;;;;;;5092946;28;20035;-48
2023/04/22 01:59:57;;;;;;;9.60;7.90;;;9.50;77.00;;;;;;5076851;28;20058;-46
2023/04/22 02:02:23;;;;;;;9.05;6.30;;;9.50;76.90;;;;;;5076440;28;20093;-47
2023/04/22 02:04:50;;;;;;;12.02;7.70;;;9.40;76.80;;;;;;5080704;28;20147;-46
2023/04/22 02:07:15;;;;;;;11.00;7.35;;;9.40;76.70;;;;;;5057509;28;20032;-48
2023/04/22 02:09:42;;;;;;;7.63;6.20;;;9.40;77.00;;;;;;5079725;28;20038;-46
2023/04/22 02:12:09;;;;;;;10.38;7.45;;;9.30;77.20;;;;;;5075652;28;20063;-47
2023/04/22 02:14:36;;;;;;;8.77;6.72;;;9.30;77.50;;;;;;5081905;28;20158;-46
2023/04/22 02:17:06;;;;;;;9.52;6.90;;;9.20;77.60;;;;;;5086796;28;20063;-47
2023/04/22 02:19:37;;;;;;;9.10;6.75;;;9.20;77.70;;;;;;5070697;28;20040;-48
2023/04/22 02:22:06;;;;;;;9.40;6.35;;;9.20;77.90;;;;;;5089060;28;20029;-46
2023/04/22 02:24:34;;;;;;;8.53;6.37;;;9.20;77.60;;;;;;5075137;28;20495;-47
2023/04/22 02:27:02;;;;;;;8.63;6.82;;;9.20;77.50;;;;;;5062153;28;20118;-47
2023/04/22 02:29:27;;;;;;;10.60;7.20;;;9.10;77.30;;;;;;5075053;28;20032;-49
2023/04/22 02:31:55;;;;;;;9.18;6.32;;;9.20;77.20;;;;;;5068738;28;20103;-46
2023/04/22 02:34:26;;;;;;;7.90;6.88;;;9.20;77.10;;;;;;5088950;28;20111;-46
2023/04/22 02:36:53;;;;;;;9.95;6.13;;;9.20;77.10;;;;;;5074544;28;20024;-47
2023/04/22 02:39:22;;;;;;;8.75;6.57;;;9.20;76.80;;;;;;5056880;28;20028;-47
2023/04/22 02:41:48;;;;;;;8.35;7.05;;;9.20;76.80;;;;;;5083579;28;20024;-46
2023/04/22 02:44:16;;;;;;;10.43;6.85;;;9.20;76.90;;;;;;5074490;28;20025;-46
2023/04/22 02:46:44;;;;;;;11.95;7.13;;;9.20;76.80;;;;;;5086235;28;20028;-47
2023/04/22 02:49:15;;;;;;;13.00;7.57;;;9.30;76.80;;;;;;5076099;28;20441;-47
2023/04/22 02:51:42;;;;;;;12.10;6.80;;;9.30;76.70;;;;;;5074766;28;20111;-47
2023/04/22 02:54:07;;;;;;;10.48;6.93;;;9.30;76.30;;;;;;5074593;28;20034;-45
2023/04/22 02:56:35;;;;;;;8.25;6.60;;;9.40;76.20;;;;;;5074847;28;20024;-49
2023/04/22 02:59:04;;;;;;;13.10;6.85;;;9.30;76.10;;;;;;5074998;28;20032;-45
2023/04/22 03:01:32;;;;;;;8.27;6.03;;;9.40;76.00;;;;;;5084731;28;20449;-47
2023/04/22 03:03:59;;;;;;;7.93;6.18;;;9.40;75.80;;;;;;5094228;28;20762;-47
2023/04/22 03:06:29;;;;;;;9.30;6.13;;;9.40;75.30;;;;;;5092698;28;20036;-47
2023/04/22 03:08:58;;;;;;;10.60;6.35;;;9.50;74.60;;;;;;5094182;28;20031;-46
2023/04/22 03:11:25;;;;;;;8.82;6.28;;;9.50;74.80;;;;;;5091022;28;20412;-46
2023/04/22 03:13:56;;;;;;;8.65;6.57;;;9.50;75.20;;;;;;5074220;28;20086;-47
2023/04/22 03:16:27;;;;;;;8.45;6.22;;;9.50;74.90;;;;;;5081901;28;20032;-46
2023/04/22 03:18:53;;;;;;;9.07;6.00;;;9.50;74.60;;;;;;5073049;28;20044;-46
2023/04/22 03:21:19;;;;;;;9.73;6.90;;;9.50;74.40;;;;;;5071767;28;20048;-47
2023/04/22 03:23:46;;;;;;;10.77;7.07;;;9.60;74.40;;;;;;5072988;28;20036;-47
2023/04/22 03:26:13;;;;;;;10.23;6.80;;;9.50;74.80;;;;;;5070791;28;20029;-47
2023/04/22 03:28:39;;;;;;;7.72;6.28;;;9.60;74.40;;;;;;5073617;28;20031;-46
2023/04/22 03:31:07;;;;;;;8.60;6.55;;;9.60;73.90;;;;;;5041781;28;20316;-46
2023/04/22 03:33:36;;;;;;;9.45;6.65;;;9.70;74.20;;;;;;5066414;28;20032;-49
2023/04/22 03:36:04;;;;;;;12.25;7.45;;;9.60;74.30;;;;;;5058856;28;20063;-46
2023/04/22 03:38:30;;;;;;;9.27;6.97;;;9.60;74.30;;;;;;5035839;28;20486;-47
2023/04/22 03:40:56;;;;;;;10.48;6.65;;;9.50;74.40;;;;;;5062910;28;20033;-45
2023/04/22 03:43:22;;;;;;;9.77;7.07;;;9.60;74.00;;;;;;5064267;28;20441;-45
2023/04/22 03:45:50;;;;;;;9.38;6.53;;;9.70;73.70;;;;;;5053311;28;20051;-46
2023/04/22 03:48:21;;;;;;;8.85;7.13;;;9.70;73.70;;;;;;5039371;28;20115;-47
2023/04/22 03:50:53;;;;;;;9.95;6.90;;;9.80;74.30;;;;;;5064111;28;20025;-46
2023/04/22 03:53:25;;;;;;;9.23;7.03;;;9.70;74.60;;;;;;5058089;28;20446;-46
2023/04/22 03:55:55;;;;;;;9.55;6.97;;;9.80;74.00;;;;;;5056300;28;20033;-47
2023/04/22 03:58:25;;;;;;;8.82;6.45;;;9.90;73.40;;;;;;5052667;28;20124;-48
2023/04/22 04:00:53;;;;;;;10.10;6.85;;;9.90;74.20;;;;;;5063005;28;20037;-46
2023/04/22 04:03:18;;;;;;;9.23;7.10;;;9.90;73.70;;;;;;5055508;28;20035;-46
2023/04/22 04:05:49;;;;;;;11.13;7.25;;;9.90;73.40;;;;;;5053428;28;20020;-47
2023/04/22 04:08:16;;;;;;;9.63;7.63;;;9.90;74.70;;;;;;5063253;28;20033;-47
2023/04/22 04:10:44;;;;;;;12.18;8.20;;;9.90;74.50;;;;;;5064493;28;20029;-46
2023/04/22 04:13:13;;;;;;;7.70;6.70;;;9.90;74.40;;;;;;5065154;28;20025;-46
2023/04/22 04:15:40;;;;;;;9.52;6.90;;;10.00;73.30;;;;;;5064391;28;20035;-50
2023/04/22 04:18:08;;;;;;;8.93;7.78;;;10.10;73.50;;;;;;5066982;28;20052;-46
2023/04/22 04:20:40;;;;;;;8.75;7.10;;;10.20;73.20;;;;;;5072857;28;20366;-48
2023/04/22 04:23:08;;;;;;;12.88;7.63;;;10.20;72.50;;;;;;5073232;28;20028;-46
2023/04/22 04:25:38;;;;;;;12.32;7.78;;;10.30;72.70;;;;;;5073060;28;20064;-46
2023/04/22 04:28:20;;;;;;;8.43;7.53;;;10.30;72.80;;;;;;5059334;28;20122;-47
2023/04/22 04:30:48;;;;;;;10.77;7.35;;;10.30;73.00;;;;;;5088264;28;20048;-47
2023/04/22 04:33:16;;;;;;;10.15;7.35;;;10.40;72.50;;;;;;5078063;28;20028;-46
2023/04/22 04:35:46;;;;;;;9.90;7.20;;;10.40;72.70;;;;;;5079887;28;20042;-50
2023/04/22 04:38:14;;;;;;;10.30;7.80;;;10.40;73.00;;;;;;5093399;28;20041;-47
2023/04/22 04:40:42;;;;;;;11.60;8.48;;;10.40;73.00;;;;;;5090187;28;20041;-48
2023/04/22 04:43:09;;;;;;;10.38;8.15;;;10.40;72.90;;;;;;5090557;28;20024;-46
2023/04/22 04:45:36;;;;;;;9.77;7.72;;;10.40;72.60;;;;;;5077187;28;20027;-48
2023/04/22 04:48:02;;;;;;;9.07;7.78;;;10.40;72.30;;;;;;5092434;28;20036;-46
2023/04/22 04:50:31;;;;;;;9.23;7.80;;;10.40;72.20;;;;;;5085736;28;20043;-47
2023/04/22 04:53:06;;;;;;;9.80;8.00;;;10.40;72.30;;;;;;5089319;28;20039;-47
2023/04/22 04:55:34;;;;;;;10.70;7.38;;;10.50;72.20;;;;;;5086950;28;20027;-49
2023/04/22 04:58:03;;;;;;;11.48;8.10;;;10.40;72.70;;;;;;5089855;28;20464;-49
2023/04/22 05:00:32;;;;;;;8.60;7.75;;;10.40;72.70;;;;;;5086757;28;20031;-48
2023/04/22 05:02:58;;;;;;;12.50;8.15;;;10.40;73.50;;;;;;5070273;28;20027;-46
2023/04/22 05:05:27;;;;;;;12.90;7.75;;;10.30;73.20;;;;;;5085391;28;20505;-46
2023/04/22 05:07:57;;;;;;;9.63;8.55;;;10.30;73.40;;;;;;5072560;28;20457;-46
2023/04/22 05:10:25;;;;;;;13.48;7.22;;;10.30;73.50;;;;;;5075159;28;20043;-46
2023/04/22 05:12:53;;;;;;;9.73;8.70;;;10.30;74.00;;;;;;5076895;28;20116;-46
2023/04/22 05:15:19;;;;;;;11.70;8.85;;;10.30;73.60;;;;;;5061058;28;20048;-48
2023/04/22 05:17:47;;;;;;;11.20;9.07;;;10.30;73.30;;;;;;5095482;28;20098;-46
2023/04/22 05:20:14;;;;;;;10.60;7.95;;;10.40;73.20;;;;;;5079288;28;20036;-48
2023/04/22 05:22:44;;;;;;;10.82;8.30;;;10.40;73.50;;;;;;5076051;28;20036;-47
2023/04/22 05:25:11;;;;;;;20.15;9.15;;;10.50;73.70;;;;;;5089437;28;20522;-47
2023/04/22 05:27:41;;;;;;;12.35;8.32;;;10.60;73.20;;;;;;5076695;28;20115;-46
2023/04/22 05:30:08;;;;;;;11.68;8.43;;;10.70;72.80;;;;;;5084179;28;20020;-46
2023/04/22 05:32:35;;;;;;;9.32;8.38;;;10.80;72.50;;;;;;5085540;28;20032;-47
2023/04/22 05:35:02;;;;;;;10.45;7.90;;;10.90;72.50;;;;;;5092167;28;20024;-47
2023/04/22 05:37:29;;;;;;;11.75;8.10;;;11.00;71.60;;;;;;5089997;28;20047;-46
2023/04/22 05:39:54;;;;;;;11.43;8.05;;;11.20;71.20;;;;;;5095041;28;20024;-47
2023/04/22 05:42:23;;;;;;;10.52;8.55;;;11.30;70.70;;;;;;5073985;28;20464;-47
2023/04/22 05:44:50;;;;;;;12.95;8.60;;;11.40;70.80;;;;;;5092881;28;20513;-47
2023/04/22 05:47:18;;;;;;;8.82;7.80;;;11.40;71.00;;;;;;5068652;28;20034;-50
2023/04/22 05:49:47;;;;;;;10.52;8.43;;;11.60;70.50;;;;;;5086934;28;20015;-46
2023/04/22 05:52:15;;;;;;;10.60;8.10;;;11.70;70.20;;;;;;5088643;28;20024;-46
2023/04/22 05:54:45;;;;;;;10.45;9.00;;;11.90;69.30;;;;;;5093521;28;20028;-48
2023/04/22 05:57:11;;;;;;;12.13;7.72;;;12.10;69.10;;;;;;5089254;28;20029;-49
2023/04/22 05:59:39;;;;;;;12.55;8.73;;;12.20;68.70;;;;;;5087147;28;20496;-46
2023/04/22 06:02:05;;;;;;;12.15;8.63;;;12.40;68.80;;;;;;5072050;28;20043;-46
2023/04/22 06:04:33;;;;;;;11.98;8.73;;;12.40;68.20;;;;;;5091823;28;20016;-46
2023/04/22 06:06:59;;;;;;;13.60;8.88;;;12.50;67.80;;;;;;5073873;28;20028;-47
2023/04/22 06:09:25;;;;;;;8.80;7.90;;;12.60;67.20;;;;;;5072844;28;20111;-47
2023/04/22 06:11:51;;;;;;;9.10;8.20;;;12.70;66.80;;;;;;5090599;28;20028;-49
2023/04/22 06:14:18;;;;;;;13.23;8.85;;;12.80;66.20;;;;;;5089605;28;20145;-48
2023/04/22 06:16:45;;;;;;;10.60;8.38;;;12.90;66.20;;;;;;5087276;28;20405;-46
2023/04/22 06:19:12;;;;;;;12.88;8.32;;;13.10;66.60;;;;;;5080491;28;20109;-45
2023/04/22 06:21:42;;;;;;;9.95;8.40;;;13.20;66.00;;;;;;5083949;28;20395;-46
2023/04/22 06:24:09;;;;;;;11.32;9.60;;;13.30;65.70;;;;;;5090545;28;20030;-49
2023/04/22 06:26:42;;;;;;;13.60;9.23;;;13.40;65.60;;;;;;5074340;28;20593;-48
2023/04/22 06:29:09;;;;;;;10.70;9.23;;;13.50;65.60;;;;;;5079360;28;20035;-46
2023/04/22 06:31:37;;;;;;;15.20;9.07;;;13.40;65.30;;;;;;5067736;28;20028;-46
2023/04/22 06:34:07;;;;;;;12.82;10.10;;;13.20;66.00;;;;;;5091171;28;20028;-46
2023/04/22 06:36:36;;;;;;;11.52;9.23;;;13.20;66.10;;;;;;5091377;28;20385;-46
2023/04/22 06:39:06;;;;;;;10.23;9.13;;;13.10;66.40;;;;;;5089792;28;20039;-46
2023/04/22 06:41:32;;;;;;;13.20;9.65;;;13.20;66.70;;;;;;5075727;28;20464;-46
2023/04/22 06:43:59;;;;;;;11.55;9.57;;;13.20;66.70;;;;;;5049186;28;20179;-46
2023/04/22 06:46:27;;;;;;;15.80;10.13;;;13.20;67.00;;;;;;5078538;28;20108;-47
2023/04/22 06:48:57;;;;;;;11.77;9.27;;;13.20;67.00;;;;;;5090972;28;20016;-48
2023/04/22 06:51:26;;;;;;;11.63;9.63;;;13.30;67.20;;;;;;5083158;28;20070;-46
2023/04/22 06:53:57;;;;;;;16.38;9.68;;;13.20;67.00;;;;;;5087864;28;20521;-47
2023/04/22 06:56:33;;;;;;;11.38;9.85;;;13.40;66.40;;;;;;5092337;28;20047;-49
2023/04/22 06:59:01;;;;;;;12.88;10.35;;;13.40;66.80;;;;;;5093540;28;20061;-46
2023/04/22 07:01:28;;;;;;;13.82;8.85;;;13.50;66.90;;;;;;5086611;28;20051;-50
2023/04/22 07:03:54;;;;;;;11.98;9.77;;;13.60;66.70;;;;;;5072665;28;20043;-47
2023/04/22 07:06:23;;;;;;;10.75;9.65;;;13.70;67.10;;;;;;5094127;28;20047;-46
2023/04/22 07:08:50;;;;;;;12.30;9.57;;;13.90;67.00;;;;;;5056623;28;20028;-46
2023/04/22 07:11:17;;;;;;;13.60;10.55;;;14.00;66.30;;;;;;5071726;28;20070;-46
2023/04/22 07:13:45;;;;;;;13.70;9.43;;;14.00;65.60;;;;;;5080457;28;20111;-46
2023/04/22 07:16:12;;;;;;;10.18;9.18;;;14.00;65.40;;;;;;5064522;28;20169;-46
2023/04/22 07:18:38;;;;;;;14.85;10.02;;;13.90;65.90;;;;;;5071907;28;20082;-49
2023/04/22 07:21:07;;;;;;;11.77;10.55;;;13.90;66.20;;;;;;5083129;28;20085;-46
2023/04/22 07:23:34;;;;;;;12.43;10.90;;;13.90;66.70;;;;;;5057345;28;20119;-48
2023/04/22 07:26:01;;;;;;;11.07;9.48;;;13.90;67.20;;;;;;5088375;28;20115;-50
2023/04/22 07:28:28;;;;;;;14.25;9.93;;;13.80;66.90;;;;;;5090385;28;20029;-47
2023/04/22 07:30:53;;;;;;;13.82;9.65;;;13.90;67.50;;;;;;5090965;28;20028;-49
2023/04/22 07:33:20;;;;;;;13.43;10.70;;;14.10;67.20;;;;;;5081987;28;20029;-51
2023/04/22 07:35:48;;;;;;;12.18;9.60;;;14.40;66.60;;;;;;5077286;28;20024;-49
2023/04/22 07:38:16;;;;;;;14.65;9.95;;;14.80;64.90;;;;;;5073310;28;20024;-48
2023/04/22 07:40:42;;;;;;;10.98;9.85;;;15.10;63.70;;;;;;5075947;28;20045;-47
2023/04/22 07:43:10;;;;;;;10.00;8.95;;;15.40;63.40;;;;;;5072710;28;20450;-46
2023/04/22 07:45:39;;;;;;;13.70;9.77;;;15.80;60.80;;;;;;5072391;28;20036;-48
2023/04/22 07:48:08;;;;;;;13.82;8.25;;;16.20;61.80;;;;;;5080679;28;20169;-46
2023/04/22 07:50:35;;;;;;;9.98;8.98;;;16.60;60.40;;;;;;5061137;28;20054;-48
2023/04/22 07:53:02;;;;;;;10.25;9.05;;;17.00;58.90;;;;;;5090210;28;20361;-46
2023/04/22 07:55:31;;;;;;;14.27;9.55;;;17.60;58.00;;;;;;5085481;28;20037;-48
2023/04/22 07:57:59;;;;;;;13.07;8.98;;;17.90;56.30;;;;;;5087867;28;20115;-48
2023/04/22 08:00:26;;;;;;;12.07;9.55;;;18.40;55.10;;;;;;5081831;28;20457;-48
2023/04/22 08:02:53;;;;;;;11.85;8.85;;;18.80;54.80;;;;;;5085683;28;20102;-48
2023/04/22 08:05:20;;;;;;;12.50;9.15;;;19.20;53.90;;;;;;5087111;28;20047;-50
2023/04/22 08:07:46;;;;;;;10.38;9.23;;;19.40;52.80;;;;;;5086121;28;20115;-48
2023/04/22 08:10:12;;;;;;;15.73;8.52;;;19.80;52.80;;;;;;5073165;28;20075;-47
2023/04/22 08:12:39;;;;;;;10.93;9.43;;;19.90;51.00;;;;;;5089819;28;20405;-47
2023/04/22 08:15:06;;;;;;;10.48;9.38;;;20.00;52.00;;;;;;5090259;28;20322;-46
2023/04/22 08:17:33;;;;;;;10.88;8.45;;;20.00;51.40;;;;;;5092871;28;20467;-47
2023/04/22 08:20:03;;;;;;;10.70;8.23;;;20.00;51.70;;;;;;5062747;28;20028;-46
2023/04/22 08:22:32;;;;;;;9.85;7.32;;;19.40;51.80;;;;;;5091779;28;20025;-47
2023/04/22 08:25:02;;;;;;;8.75;7.85;;;18.70;54.50;;;;;;5067653;28;20093;-48
2023/04/22 08:27:30;;;;;;;11.52;8.73;;;18.10;55.80;;;;;;5089419;28;20047;-47
2023/04/22 08:29:55;;;;;;;12.60;8.38;;;17.80;56.40;;;;;;5085612;28;20048;-48
2023/04/22 08:32:25;;;;;;;11.85;8.52;;;17.60;57.70;;;;;;5086431;28;20067;-46
2023/04/22 08:34:55;;;;;;;10.45;7.90;;;17.60;58.80;;;;;;5085522;28;20122;-46
2023/04/22 08:37:25;;;;;;;11.82;9.40;;;17.80;59.60;;;;;;5081666;28;20377;-47
2023/04/22 08:39:52;;;;;;;;;;;17.80;58.10;;;;;;5085862;28;20064;-48
2023/04/22 08:42:19;;;;;;;11.18;8.95;;;17.90;58.70;;;;;;5074330;28;19908;-49
2023/04/22 08:44:47;;;;;;;12.57;8.52;;;18.00;58.80;;;;;;5067334;28;20039;-47
2023/04/22 08:47:15;;;;;;;15.27;8.57;;;18.50;59.00;;;;;;5055172;28;20346;-46
2023/04/22 08:49:44;;;;;;;18.90;9.10;;;18.60;56.40;;;;;;5074268;28;20422;-46
2023/04/22 08:52:11;;;;;;;9.48;8.27;;;18.70;56.90;;;;;;5068751;28;20036;-47
2023/04/22 08:54:39;;;;;;;11.15;10.05;;;18.70;57.10;;;;;;5050554;28;20047;-46
2023/04/22 08:57:10;;;;;;;14.57;8.65;;;18.50;56.20;;;;;;5089260;28;20024;-46
2023/04/22 08:59:37;;;;;;;14.88;10.13;;;18.60;57.50;;;;;;5076616;28;20036;-46
2023/04/22 09:02:26;;;;;;;12.40;9.85;;;18.60;57.60;;;;;;5069367;28;20081;-46
2023/04/22 09:04:52;;;;;;;11.63;9.57;;;18.70;56.50;;;;;;5075633;28;20605;-46
2023/04/22 09:07:26;;;;;;;10.02;8.63;;;18.60;58.70;;;;;;5089711;28;20074;-46
2023/04/22 09:09:57;;;;;;;10.95;8.98;;;18.90;57.40;;;;;;5073867;28;20118;-46
2023/04/22 09:12:24;;;;;;;10.93;9.07;;;19.10;57.00;;;;;;5092072;28;20103;-46
2023/04/22 09:14:51;;;;;;;12.95;9.02;;;19.50;56.30;;;;;;5052791;28;20036;-49
2023/04/22 09:17:36;;;;;;;11.00;9.02;;;19.80;54.90;;;;;;5091407;28;20066;-46
2023/04/22 09:20:11;;;;;;;10.10;8.43;;;20.20;54.40;;;;;;5075964;28;20133;-48
2023/04/22 09:22:48;;;;;;;10.98;9.30;;;20.70;54.50;;;;;;5087746;28;20343;-49
2023/04/22 09:25:36;;;;;;;9.52;8.63;;;21.00;54.80;;;;;;5071177;28;20048;-51
2023/04/22 09:28:02;;;;;;;12.45;8.75;;;21.00;51.90;;;;;;5086422;28;20115;-48
2023/04/22 09:30:36;;;;;;;8.95;7.85;;;21.10;52.00;;;;;;5091884;28;20030;-47
2023/04/22 09:33:04;;;;;;;9.73;8.10;;;21.20;52.60;;;;;;5066831;28;20107;-51
2023/04/22 09:35:49;;;;;;;11.02;8.57;;;21.40;51.50;;;;;;5086599;28;20028;-47
2023/04/22 09:38:16;;;;;;;10.07;8.27;;;21.40;49.90;;;;;;5085583;28;20039;-47
2023/04/22 09:40:43;;;;;;;9.50;8.55;;;21.20;52.90;;;;;;5085750;28;20035;-48
2023/04/22 09:43:10;;;;;;;11.15;8.73;;;21.20;52.30;;;;;;5090420;28;20028;-47
2023/04/22 09:45:41;;;;;;;9.73;8.73;;;20.90;51.00;;;;;;5074419;28;20165;-48
2023/04/22 09:48:25;;;;;;;9.43;7.80;;;20.80;54.00;;;;;;5042970;28;20024;-49
2023/04/22 09:50:53;;;;;;;9.95;8.77;;;21.10;54.40;;;;;;5073122;28;20372;-47
2023/04/22 09:53:20;;;;;;;10.18;9.07;;;21.50;51.60;;;;;;5070103;28;20036;-47
2023/04/22 09:55:52;;;;;;;9.45;8.43;;;21.60;50.40;;;;;;5069928;28;20032;-49
2023/04/22 09:58:26;;;;;;;9.55;8.18;;;21.70;52.30;;;;;;5062360;28;20415;-48
2023/04/22 10:01:04;;;;;;;10.70;8.18;;;21.80;51.00;;;;;;5082051;28;20032;-48
2023/04/22 10:03:33;;;;;;;10.95;9.52;;;21.70;51.40;;;;;;5086294;28;20038;-46
2023/04/22 10:05:58;;;;;;;9.65;8.63;;;21.70;49.90;;;;;;5076692;28;20027;-48
2023/04/22 10:08:32;;;;;;;10.60;9.50;;;21.70;51.00;;;;;;5071215;28;20037;-46
2023/04/22 10:10:57;;;;;;;11.23;9.55;;;21.90;51.50;;;;;;5077809;28;20036;-47
2023/04/22 10:13:27;;;;;;;10.15;8.38;;;21.90;50.50;;;;;;5066427;28;20024;-47
2023/04/22 10:15:55;;;;;;;9.93;8.95;;;22.10;51.00;;;;;;5088502;28;20039;-47
2023/04/22 10:18:36;;;;;;;10.75;9.35;;;22.00;51.70;;;;;;5087883;28;20063;-48
2023/04/22 10:21:06;;;;;;;10.45;9.45;;;22.20;49.90;;;;;;5076452;28;20032;-49
2023/04/22 10:23:32;;;;;;;10.05;9.10;;;22.30;53.00;;;;;;5077704;28;20073;-47
2023/04/22 10:26:00;;;;;;;9.95;8.95;;;22.40;49.20;;;;;;5083218;28;20313;-47
2023/04/22 10:28:27;;;;;;;10.40;9.40;;;22.00;50.10;;;;;;5088857;28;20043;-46
2023/04/22 10:30:57;;;;;;;9.77;8.75;;;22.00;49.70;;;;;;5086911;28;20115;-48
2023/04/22 10:33:30;;;;;;;11.65;9.20;;;21.70;50.70;;;;;;5091659;28;20028;-47
2023/04/22 10:36:19;;;;;;;9.52;8.57;;;21.50;50.20;;;;;;5087525;28;20058;-48
2023/04/22 10:38:56;;;;;;;10.02;9.02;;;21.80;52.00;;;;;;5090809;28;20103;-46
2023/04/22 10:41:24;;;;;;;10.85;8.35;;;21.90;49.80;;;;;;5089441;28;20532;-49
2023/04/22 10:44:00;;;;;;;10.63;9.50;;;22.10;51.20;;;;;;5073440;28;20040;-46
2023/04/22 10:46:52;;;;;;;13.15;8.45;;;21.90;50.00;;;;;;5049292;28;20036;-50
2023/04/22 10:49:21;;;;;;;9.45;8.50;;;21.80;50.20;;;;;;5074385;28;20040;-47
2023/04/22 10:51:57;;;;;;;9.63;8.63;;;21.70;49.50;;;;;;5078614;28;20032;-48
2023/04/22 10:54:35;;;;;;;9.88;8.88;;;21.80;51.60;;;;;;5093259;28;20043;-47
2023/04/22 10:57:21;;;;;;;9.98;8.55;;;21.70;51.80;;;;;;5086243;28;20081;-47
2023/04/22 10:59:54;;;;;;;9.45;8.15;;;21.50;52.60;;;;;;5065886;28;20572;-52
2023/04/22 11:02:22;;;;;;;10.85;9.75;;;21.40;52.10;;;;;;5094034;28;20035;-50
2023/04/22 11:04:48;;;;;;;9.48;8.45;;;21.30;52.10;;;;;;5078830;28;20021;-50
2023/04/22 11:07:29;;;;;;;10.77;9.68;;;21.50;54.50;;;;;;5090687;28;20056;-48
2023/04/22 11:10:18;;;;;;;10.30;8.45;;;21.50;51.80;;;;;;5073951;28;20103;-47
2023/04/22 11:12:48;;;;;;;11.63;9.40;;;21.30;53.60;;;;;;5078503;28;20036;-47
2023/04/22 11:15:18;;;;;;;8.95;8.13;;;21.20;53.00;;;;;;5074613;28;20123;-47
2023/04/22 11:17:49;;;;;;;12.73;9.75;;;20.90;52.70;;;;;;5073449;28;20460;-46
2023/04/22 11:20:17;;;;;;;10.15;8.98;;;20.50;53.20;;;;;;5053361;28;20039;-48
2023/04/22 11:22:55;;;;;;;12.00;8.95;;;20.30;55.60;;;;;;5092454;28;20039;-47
2023/04/22 11:25:22;;;;;;;12.63;8.82;;;20.20;54.30;;;;;;5075800;28;20043;-49
2023/04/22 11:27:49;;;;;;;11.40;8.20;;;20.00;54.80;;;;;;5059533;28;20039;-47
2023/04/22 11:30:34;;;;;;;11.23;8.57;;;20.00;56.70;;;;;;5065997;28;20451;-47
2023/04/22 11:33:00;;;;;;;11.52;8.35;;;20.10;54.60;;;;;;5077127;28;20082;-46
2023/04/22 11:35:44;;;;;;;10.30;8.27;;;20.30;55.10;;;;;;5085491;28;20020;-48
2023/04/22 11:38:13;;;;;;;8.70;7.30;;;20.30;55.60;;;;;;5082262;28;20037;-47
2023/04/22 11:40:44;;;;;;;9.20;7.25;;;20.60;57.40;;;;;;5077587;28;20043;-47
2023/04/22 11:43:10;;;;;;;11.48;8.32;;;20.90;54.40;;;;;;5086499;28;20044;-49
2023/04/22 11:45:41;;;;;;;8.82;7.10;;;20.90;53.10;;;;;;5061394;28;20040;-48
2023/04/22 11:48:10;;;;;;;8.50;7.45;;;20.90;53.50;;;;;;5062032;28;20032;-48
2023/04/22 11:50:38;;;;;;;8.02;7.15;;;20.80;54.10;;;;;;5069036;28;20360;-47
2023/04/22 11:53:13;;;;;;;9.95;7.95;;;20.80;53.70;;;;;;5072878;28;20032;-52
2023/04/22 11:55:40;;;;;;;8.18;7.38;;;20.90;53.90;;;;;;5085550;28;20471;-49
2023/04/22 11:58:26;;;;;;;8.50;7.13;;;20.80;53.10;;;;;;5080281;28;20115;-49
2023/04/22 12:00:59;;;;;;;9.13;7.32;;;20.90;53.10;;;;;;5059850;28;20469;-47
2023/04/22 12:03:29;;;;;;;9.55;6.65;;;21.00;54.40;;;;;;5065101;28;20044;-47
2023/04/22 12:06:15;;;;;;;8.13;6.90;;;21.20;54.30;;;;;;5084113;28;20024;-47
2023/04/22 12:08:43;;;;;;;7.75;6.93;;;21.10;52.90;;;;;;5084034;28;20020;-47
2023/04/22 12:11:14;;;;;;;8.20;6.60;;;21.00;52.50;;;;;;5074945;28;20094;-47
2023/04/22 12:14:04;;;;;;;10.13;6.65;;;20.90;53.00;;;;;;5073183;28;20094;-48
2023/04/22 12:16:47;;;;;;;7.88;7.07;;;21.10;54.20;;;;;;5046952;28;20063;-49
2023/04/22 12:19:13;;;;;;;8.88;6.65;;;21.60;52.00;;;;;;5059680;28;20063;-50
2023/04/22 12:21:43;;;;;;;9.13;6.18;;;21.90;52.50;;;;;;5079641;28;20023;-46
2023/04/22 12:24:11;;;;;;;;;;;22.00;51.50;;;;;;5074900;28;20032;-49
2023/04/22 12:26:40;;;;;;;6.93;5.53;;;22.10;52.80;;;;;;5072817;28;20817;-47
2023/04/22 12:29:10;;;;;;;6.50;5.22;;;22.30;51.50;;;;;;5073194;28;20024;-47
2023/04/22 12:31:37;;;;;;;6.38;5.00;;;22.20;50.60;;;;;;5076520;28;20033;-47
2023/04/22 12:34:05;;;;;;;7.72;5.65;;;22.10;52.00;;;;;;5060212;28;20330;-47
2023/04/22 12:36:32;;;;;;;7.97;4.78;;;22.20;50.30;;;;;;5091582;28;20032;-52
2023/04/22 12:38:59;;;;;;;8.80;5.70;;;22.20;50.50;;;;;;5078198;28;20146;-47
2023/04/22 12:41:25;;;;;;;6.55;4.35;;;22.30;50.70;;;;;;5053386;28;20462;-47
2023/04/22 12:43:54;;;;;;;7.07;4.85;;;22.00;50.50;;;;;;5072710;28;20059;-51
2023/04/22 12:46:21;;;;;;;6.90;4.97;;;21.90;51.00;;;;;;5056079;28;20111;-47
2023/04/22 12:48:47;;;;;;;9.43;5.30;;;21.90;49.90;;;;;;5075374;28;20345;-47
2023/04/22 12:51:14;;;;;;;6.60;5.15;;;21.90;51.00;;;;;;5074072;28;20515;-48
2023/04/22 12:53:40;;;;;;;4.95;4.38;;;22.10;49.80;;;;;;5087101;28;20075;-48